Time;durP1;ratioP1;P1;durP2;ratioP2;P2;SDS_P1;SDS_P2;PMS_P1;PMS_P2;Temp;Humidity;BMP_temperature;BMP_pressure;BME280_temperature;BME280_humidity;BME280_pressure;Samples;Min_cycle;Max_cycle;Signal;HPM_P1;HPM_P2
2022/08/10 00:02:41;;;;;;;6.80;4.50;;;;;;;-148.14;100.00;65945.72;5037818;28;20122;-85
2022/08/10 00:05:08;;;;;;;6.15;4.30;;;;;;;-148.14;100.00;65945.72;5055868;28;20491;-84
2022/08/10 00:07:33;;;;;;;8.30;4.88;;;;;;;-148.14;100.00;65945.72;5055052;28;20471;-86
2022/08/10 00:09:59;;;;;;;7.13;5.00;;;;;;;-148.14;100.00;65945.72;5037356;28;20032;-85
2022/08/10 00:12:25;;;;;;;6.22;4.40;;;;;;;-148.14;100.00;65945.72;5052768;28;20021;-85
2022/08/10 00:14:53;;;;;;;6.55;4.70;;;;;;;-148.14;100.00;65945.72;5053619;28;20028;-86
2022/08/10 00:17:18;;;;;;;8.23;5.03;;;;;;;-148.14;100.00;65945.72;5035953;28;20102;-86
2022/08/10 00:19:44;;;;;;;8.45;4.95;;;;;;;-148.14;100.00;65945.72;5053140;28;20475;-87
2022/08/10 00:22:10;;;;;;;5.75;4.35;;;;;;;-148.14;100.00;65945.72;5031164;28;20029;-87
2022/08/10 00:24:36;;;;;;;5.90;4.53;;;;;;;-148.14;100.00;65945.72;5054330;28;20147;-85
2022/08/10 00:27:02;;;;;;;5.25;4.55;;;;;;;-148.14;100.00;65945.72;5026729;28;20043;-86
2022/08/10 00:29:28;;;;;;;7.03;4.70;;;;;;;-148.14;100.00;65945.72;5026933;28;20082;-86
2022/08/10 00:31:54;;;;;;;7.78;4.85;;;;;;;-148.14;100.00;65945.72;5036259;28;20032;-85
2022/08/10 00:34:20;;;;;;;6.10;4.85;;;;;;;-148.14;100.00;65945.72;5030748;28;20041;-86
2022/08/10 00:36:45;;;;;;;11.52;4.93;;;;;;;-148.14;100.00;65945.72;5035584;28;20044;-85
2022/08/10 00:39:11;;;;;;;5.35;4.40;;;;;;;-148.14;100.00;65945.72;5030220;28;20025;-85
2022/08/10 00:41:38;;;;;;;9.43;5.18;;;;;;;-148.14;100.00;65945.72;5052826;28;20071;-84
2022/08/10 00:44:04;;;;;;;11.63;5.30;;;;;;;-148.14;100.00;65945.72;5052015;28;20052;-86
2022/08/10 00:46:30;;;;;;;6.45;4.57;;;;;;;-148.14;100.00;65945.72;5034233;28;20033;-85
2022/08/10 00:48:56;;;;;;;6.72;4.53;;;;;;;-148.14;100.00;65945.72;5029788;28;20391;-84
2022/08/10 00:51:21;;;;;;;7.65;4.63;;;;;;;-148.14;100.00;65945.72;5032931;28;20045;-88
2022/08/10 00:53:47;;;;;;;7.70;4.93;;;;;;;-148.14;100.00;65945.72;5031833;28;20040;-87
2022/08/10 00:56:13;;;;;;;7.15;4.57;;;;;;;-148.14;100.00;65945.72;5014904;28;20395;-86
2022/08/10 00:58:39;;;;;;;7.00;4.95;;;;;;;-148.14;100.00;65945.72;5029365;28;20060;-87
2022/08/10 01:01:08;;;;;;;8.52;4.57;;;;;;;-148.14;100.00;65945.72;5014915;28;20029;-85
2022/08/10 01:03:34;;;;;;;7.28;4.78;;;;;;;-148.14;100.00;65945.72;5027578;28;20029;-87
2022/08/10 01:06:24;;;;;;;9.60;5.18;;;;;;;-148.14;100.00;65945.72;5053195;28;20036;-88
2022/08/10 01:08:56;;;;;;;4.82;4.10;;;;;;;-148.14;100.00;65945.72;5011898;28;20029;-86
2022/08/10 01:11:38;;;;;;;6.68;4.72;;;;;;;-148.14;100.00;65945.72;5019512;28;20044;-85
2022/08/10 01:14:18;;;;;;;9.15;5.20;;;;;;;-148.14;100.00;65945.72;5053494;28;20082;-85
2022/08/10 01:16:56;;;;;;;6.85;4.70;;;;;;;-148.14;100.00;65945.72;5035989;28;20040;-86
2022/08/10 01:19:45;;;;;;;6.32;4.68;;;;;;;-148.14;100.00;65945.72;5023961;28;20033;-86
2022/08/10 01:22:20;;;;;;;8.07;4.57;;;;;;;-148.14;100.00;65945.72;5009928;28;20044;-87
2022/08/10 01:24:54;;;;;;;10.68;5.05;;;;;;;-148.14;100.00;65945.72;5041705;28;20403;-88
2022/08/10 01:27:20;;;;;;;8.77;4.82;;;;;;;-148.14;100.00;65945.72;5022557;28;20065;-86
2022/08/10 01:30:01;;;;;;;6.70;4.32;;;;;;;-148.14;100.00;65945.72;5036808;28;20067;-86
2022/08/10 01:32:54;;;;;;;7.35;5.32;;;;;;;-148.14;100.00;65945.72;5054103;28;20025;-86
2022/08/10 01:35:56;;;;;;;5.63;4.60;;;;;;;19.38;92.89;100298.41;5099672;28;20377;-86
2022/08/10 01:38:36;;;;;;;7.43;4.85;;;;;;;19.36;93.09;100300.47;5102875;28;20111;-86
2022/08/10 01:41:05;;;;;;;7.78;5.10;;;;;;;19.32;92.97;100299.31;5082516;28;20028;-85
2022/08/10 01:43:36;;;;;;;6.38;4.47;;;;;;;19.32;93.47;100296.63;5100931;28;20051;-85
2022/08/10 01:46:04;;;;;;;8.90;5.30;;;;;;;19.30;93.26;100291.53;5085497;28;20474;-87
2022/08/10 01:48:33;;;;;;;6.18;4.82;;;;;;;19.22;93.73;100289.97;5087019;28;20036;-86
2022/08/10 01:51:10;;;;;;;7.63;5.07;;;;;;;19.23;93.92;100286.28;5097410;28;20448;-86
2022/08/10 01:53:53;;;;;;;8.30;5.20;;;;;;;19.15;94.17;100283.91;5100219;28;20028;-86
2022/08/10 01:56:21;;;;;;;8.27;5.10;;;;;;;19.17;93.80;100281.84;5101271;28;20489;-86
2022/08/10 01:58:53;;;;;;;7.05;5.15;;;;;;;19.18;94.12;100282.66;5084158;28;20107;-85
2022/08/10 02:01:23;;;;;;;8.10;5.18;;;;;;;19.17;94.19;100287.16;5097445;28;20029;-86
2022/08/10 02:03:51;;;;;;;7.45;5.00;;;;;;;19.13;94.50;100284.13;5083038;28;20553;-86
2022/08/10 02:06:19;;;;;;;7.90;5.40;;;;;;;19.11;94.67;100283.53;5095576;28;20489;-84
2022/08/10 02:08:47;;;;;;;6.55;5.20;;;;;;;19.13;94.85;100278.00;5094578;28;20484;-86
2022/08/10 02:11:14;;;;;;;9.27;4.95;;;;;;;19.11;94.71;100275.53;5074182;28;20055;-86
2022/08/10 02:13:42;;;;;;;8.52;4.95;;;;;;;19.09;95.02;100284.81;5095613;28;20024;-85
2022/08/10 02:16:09;;;;;;;7.57;4.80;;;;;;;19.06;95.01;100274.56;5095475;28;20036;-85
2022/08/10 02:18:35;;;;;;;6.88;4.70;;;;;;;19.04;95.14;100273.97;5100605;28;20035;-85
2022/08/10 02:21:05;;;;;;;9.70;4.90;;;;;;;19.01;95.52;100277.09;5100789;28;20028;-86
2022/08/10 02:23:33;;;;;;;7.32;5.10;;;;;;;19.02;95.55;100284.03;5105936;28;20038;-87
2022/08/10 02:26:01;;;;;;;5.72;4.72;;;;;;;19.01;95.77;100285.06;5101200;28;20626;-86
2022/08/10 02:28:30;;;;;;;6.93;5.07;;;;;;;19.02;96.36;100284.03;5097127;28;20043;-86
2022/08/10 02:31:18;;;;;;;6.13;4.88;;;;;;;18.93;95.96;100284.31;5103676;28;20042;-85
2022/08/10 02:33:46;;;;;;;6.43;5.10;;;;;;;18.98;96.15;100288.97;5100823;28;20071;-86
2022/08/10 02:36:12;;;;;;;8.40;4.93;;;;;;;18.93;96.58;100292.28;5100811;28;20036;-86
2022/08/10 02:39:00;;;;;;;10.60;5.47;;;;;;;18.92;96.72;100288.00;5088370;28;20080;-85
2022/08/10 02:41:36;;;;;;;8.32;5.00;;;;;;;18.90;96.74;100287.41;5098183;28;20027;-85
2022/08/10 02:44:06;;;;;;;7.70;5.18;;;;;;;18.86;96.94;100280.88;5087816;28;20043;-86
2022/08/10 02:46:40;;;;;;;7.45;5.40;;;;;;;18.87;97.18;100281.69;5088897;28;20378;-87
2022/08/10 02:49:11;;;;;;;5.10;4.53;;;;;;;18.81;97.32;100283.38;5066931;28;20028;-86
2022/08/10 02:51:45;;;;;;;10.77;5.53;;;;;;;18.86;97.37;100286.19;5086384;28;20028;-88
2022/08/10 02:54:18;;;;;;;7.32;5.47;;;;;;;18.88;97.68;100276.16;5091611;28;20111;-87
2022/08/10 02:57:01;;;;;;;9.68;5.32;;;;;;;18.89;97.47;100277.78;5089223;28;20474;-86
2022/08/10 02:59:31;;;;;;;7.55;5.35;;;;;;;18.82;97.73;100283.16;5069827;28;20035;-86
2022/08/10 03:02:01;;;;;;;6.88;5.53;;;;;;;18.73;97.81;100283.66;5086152;28;20414;-87
2022/08/10 03:04:35;;;;;;;8.02;5.20;;;;;;;18.69;98.30;100288.59;5067494;28;20043;-86
2022/08/10 03:07:05;;;;;;;6.68;5.18;;;;;;;18.64;98.37;100289.25;5069551;28;20055;-87
2022/08/10 03:09:34;;;;;;;7.68;5.07;;;;;;;18.63;98.83;100292.94;5083287;28;20039;-86
2022/08/10 03:12:02;;;;;;;5.65;5.05;;;;;;;18.58;98.75;100290.13;5089589;28;20520;-87
2022/08/10 03:14:29;;;;;;;7.90;5.32;;;;;;;18.48;99.51;100287.16;5086596;28;20025;-86
2022/08/10 03:16:56;;;;;;;7.72;5.88;;;;;;;18.52;99.56;100291.78;5089185;28;20048;-87
2022/08/10 03:19:23;;;;;;;8.07;5.65;;;;;;;18.48;99.42;100285.28;5090745;28;20032;-86
2022/08/10 03:21:51;;;;;;;6.13;5.28;;;;;;;18.50;99.85;100282.44;5089182;28;20077;-87
2022/08/10 03:24:21;;;;;;;6.60;5.90;;;;;;;18.50;99.87;100283.22;5083878;28;20046;-87
2022/08/10 03:26:49;;;;;;;14.40;6.35;;;;;;;18.51;100.00;100284.06;5086309;28;20078;-87
2022/08/10 03:29:17;;;;;;;9.82;5.97;;;;;;;18.46;100.00;100281.19;5085959;28;20110;-86
2022/08/10 03:31:44;;;;;;;8.90;6.20;;;;;;;18.42;100.00;100280.84;5090481;28;20063;-87
2022/08/10 03:34:11;;;;;;;8.18;5.72;;;;;;;18.40;100.00;100282.91;5086884;28;20122;-89
2022/08/10 03:36:36;;;;;;;6.28;5.68;;;;;;;18.40;100.00;100274.94;5088261;28;20115;-87
2022/08/10 03:39:02;;;;;;;6.70;5.85;;;;;;;18.35;100.00;100280.88;5085408;28;20063;-87
2022/08/10 03:41:35;;;;;;;10.13;6.18;;;;;;;18.39;100.00;100279.41;5082628;28;20372;-89
2022/08/10 03:44:03;;;;;;;10.07;6.95;;;;;;;18.33;100.00;100272.31;5084273;28;20157;-88
2022/08/10 03:46:30;;;;;;;8.07;6.05;;;;;;;18.40;100.00;100281.03;5063562;28;20041;-86
2022/08/10 03:49:00;;;;;;;6.72;5.97;;;;;;;18.37;100.00;100278.00;5078136;28;20335;-85
2022/08/10 03:51:25;;;;;;;8.15;6.60;;;;;;;18.44;100.00;100283.28;5077903;28;20028;-86
2022/08/10 03:53:52;;;;;;;8.18;6.00;;;;;;;18.42;100.00;100275.53;5087023;28;20032;-86
2022/08/10 03:56:19;;;;;;;9.88;6.30;;;;;;;18.44;100.00;100283.28;5079583;28;20111;-88
2022/08/10 03:58:45;;;;;;;6.78;5.65;;;;;;;18.39;100.00;100266.13;5079359;28;20020;-85
2022/08/10 04:01:12;;;;;;;5.93;5.40;;;;;;;18.49;99.92;100278.94;5063629;28;20120;-86
2022/08/10 04:03:38;;;;;;;6.78;6.05;;;;;;;18.48;99.58;100289.81;5064685;28;20032;-86
2022/08/10 04:06:04;;;;;;;9.50;5.78;;;;;;;18.57;98.94;100285.84;5068010;28;20025;-85
2022/08/10 04:08:31;;;;;;;6.30;5.70;;;;;;;18.63;99.09;100286.81;5081151;28;20516;-88
2022/08/10 04:10:57;;;;;;;10.27;5.95;;;;;;;18.68;98.81;100282.47;5085511;28;20036;-88
2022/08/10 04:13:23;;;;;;;8.95;5.93;;;;;;;18.67;98.63;100280.84;5067892;28;20036;-88
2022/08/10 04:15:49;;;;;;;8.70;5.63;;;;;;;18.62;98.41;100280.66;5088105;28;20052;-88
2022/08/10 04:18:14;;;;;;;6.43;5.07;;;;;;;18.55;98.31;100285.25;5083814;28;20067;-85
2022/08/10 04:20:57;;;;;;;6.90;5.38;;;;;;;18.51;98.58;100278.72;5081778;28;20106;-87
2022/08/10 04:23:28;;;;;;;7.07;5.45;;;;;;;18.49;98.82;100288.78;5081638;28;20028;-87
2022/08/10 04:25:55;;;;;;;8.35;5.80;;;;;;;18.42;98.90;100288.81;5060867;28;20059;-85
2022/08/10 04:28:21;;;;;;;5.88;5.13;;;;;;;18.38;99.19;100290.28;5080987;28;20039;-85
2022/08/10 04:30:51;;;;;;;8.35;5.63;;;;;;;18.37;99.34;100283.31;5086304;28;20024;-84
2022/08/10 04:33:19;;;;;;;9.52;5.53;;;;;;;18.47;99.09;100283.66;5081767;28;20040;-85
2022/08/10 04:35:46;;;;;;;12.63;5.90;;;;;;;18.45;99.04;100271.59;5085548;28;20051;-87
2022/08/10 04:38:14;;;;;;;6.70;5.35;;;;;;;18.41;99.32;100277.34;5066787;28;20101;-86
2022/08/10 04:40:41;;;;;;;7.45;5.97;;;;;;;18.38;99.65;100280.44;5066168;28;20028;-87
2022/08/10 04:43:06;;;;;;;7.07;5.70;;;;;;;18.33;99.83;100279.47;5083692;28;20048;-86
2022/08/10 04:45:33;;;;;;;8.88;5.90;;;;;;;18.31;99.95;100266.41;5078130;28;20105;-85
2022/08/10 04:47:59;;;;;;;7.25;6.13;;;;;;;18.35;100.00;100266.75;5082438;28;20375;-86
2022/08/10 04:50:25;;;;;;;7.18;5.75;;;;;;;18.39;100.00;100271.44;5086168;28;20035;-88
2022/08/10 04:52:51;;;;;;;7.10;5.88;;;;;;;18.45;100.00;100275.09;5071434;28;20032;-87
2022/08/10 04:55:17;;;;;;;8.70;6.38;;;;;;;18.45;100.00;100271.59;5068460;28;20044;-86
2022/08/10 04:57:43;;;;;;;8.68;5.40;;;;;;;18.56;99.82;100273.56;5086914;28;20032;-87
2022/08/10 05:00:09;;;;;;;10.02;6.28;;;;;;;18.62;99.30;100277.22;5087679;28;20134;-84
2022/08/10 05:02:35;;;;;;;11.02;6.13;;;;;;;18.78;98.46;100276.66;5077895;28;20032;-85
2022/08/10 05:05:01;;;;;;;9.50;5.68;;;;;;;18.83;98.41;100276.00;5078837;28;20032;-85
2022/08/10 05:07:29;;;;;;;7.53;5.35;;;;;;;18.92;98.12;100276.53;5065605;28;20028;-86
2022/08/10 05:09:55;;;;;;;8.13;5.45;;;;;;;19.00;97.29;100281.59;5080695;28;20095;-85
2022/08/10 05:12:21;;;;;;;7.22;5.78;;;;;;;19.09;97.69;100279.47;5060856;28;20028;-85
2022/08/10 05:14:47;;;;;;;6.25;5.18;;;;;;;19.13;97.12;100275.34;5085763;28;20025;-85
2022/08/10 05:17:12;;;;;;;9.27;5.45;;;;;;;19.12;97.47;100271.03;5077622;28;20038;-86
2022/08/10 05:19:38;;;;;;;6.82;5.35;;;;;;;19.16;96.99;100266.91;5080738;28;20070;-86
2022/08/10 05:22:04;;;;;;;8.98;6.03;;;;;;;19.23;96.76;100267.63;5085553;28;20032;-88
2022/08/10 05:24:31;;;;;;;6.40;5.68;;;;;;;19.30;96.70;100270.22;5066229;28;20440;-88
2022/08/10 05:26:56;;;;;;;7.68;5.47;;;;;;;19.32;96.57;100267.34;5083331;28;20028;-86
2022/08/10 05:29:22;;;;;;;6.38;5.60;;;;;;;19.39;96.25;100268.09;5078200;28;20097;-89
2022/08/10 05:31:48;;;;;;;7.47;5.18;;;;;;;19.43;96.05;100276.44;5071799;28;20036;-88
2022/08/10 05:34:15;;;;;;;6.28;5.38;;;;;;;19.46;96.25;100260.03;5081523;28;20033;-85
2022/08/10 05:36:41;;;;;;;9.52;5.88;;;;;;;19.52;96.51;100262.59;5065761;28;20089;-85
2022/08/10 05:39:10;;;;;;;9.63;5.78;;;;;;;19.54;95.88;100260.53;5065694;28;20028;-87
2022/08/10 05:41:36;;;;;;;6.80;6.10;;;;;;;19.61;95.78;100262.28;5080176;28;20425;-88
2022/08/10 05:44:02;;;;;;;6.40;5.60;;;;;;;19.70;95.64;100271.63;5066963;28;20453;-87
2022/08/10 05:46:28;;;;;;;8.50;6.30;;;;;;;19.70;95.41;100263.63;5080249;28;20064;-85
2022/08/10 05:48:53;;;;;;;6.78;5.28;;;;;;;19.76;95.69;100267.25;5082181;28;20032;-85
2022/08/10 05:51:19;;;;;;;6.18;5.55;;;;;;;19.81;95.15;100265.50;5082164;28;20080;-87
2022/08/10 05:53:45;;;;;;;7.90;5.43;;;;;;;19.87;94.79;100263.00;5082992;28;20036;-86
2022/08/10 05:56:11;;;;;;;6.90;5.78;;;;;;;19.92;94.22;100276.47;5066285;28;20047;-87
2022/08/10 05:58:37;;;;;;;6.28;5.65;;;;;;;19.97;94.54;100274.78;5090792;28;20032;-86
2022/08/10 06:01:09;;;;;;;5.57;4.97;;;;;;;20.01;93.98;100264.44;5081415;28;20052;-87
2022/08/10 06:03:52;;;;;;;6.25;5.65;;;;;;;20.08;93.74;100264.34;5084651;28;20103;-88
2022/08/10 06:06:20;;;;;;;5.68;5.05;;;;;;;20.16;93.71;100265.88;5087588;28;20028;-89
2022/08/10 06:08:49;;;;;;;7.53;5.20;;;;;;;20.25;93.73;100265.34;5087897;28;20032;-86
2022/08/10 06:11:15;;;;;;;6.03;5.10;;;;;;;20.30;93.72;100264.66;5082453;28;20029;-89
2022/08/10 06:16:31;;;;;;;11.10;5.15;;;;;;;20.42;92.92;100259.34;5079717;28;20025;-87
2022/08/10 06:18:58;;;;;;;5.43;4.93;;;;;;;20.48;92.48;100260.28;5086207;28;20410;-87
2022/08/10 06:21:25;;;;;;;8.57;5.03;;;;;;;20.54;92.12;100265.50;5080624;28;20024;-86
2022/08/10 06:23:55;;;;;;;6.80;5.43;;;;;;;20.63;93.18;100255.28;5086334;28;20034;-85
2022/08/10 06:26:21;;;;;;;6.93;4.72;;;;;;;20.71;92.09;100267.47;5081122;28;20028;-86
2022/08/10 06:28:52;;;;;;;10.18;4.97;;;;;;;20.76;91.29;100262.25;5084704;28;20393;-84
2022/08/10 06:31:19;;;;;;;10.20;4.93;;;;;;;20.88;91.11;100267.63;5064885;28;20035;-88
2022/08/10 06:33:46;;;;;;;5.60;5.10;;;;;;;20.93;90.49;100266.91;5068902;28;20051;-87
2022/08/10 06:36:14;;;;;;;11.10;5.20;;;;;;;21.02;90.11;100264.69;5089907;28;20039;-85
2022/08/10 06:38:42;;;;;;;7.40;5.03;;;;;;;21.06;88.23;100264.00;5082154;28;20027;-87
2022/08/10 06:41:17;;;;;;;8.10;4.72;;;;;;;21.11;87.02;100265.97;5086188;28;20036;-86
2022/08/10 06:43:49;;;;;;;5.18;4.40;;;;;;;21.26;87.26;100271.66;5067513;28;20424;-85
2022/08/10 06:46:19;;;;;;;6.15;5.32;;;;;;;21.32;86.45;100266.41;5089128;28;20028;-87
2022/08/10 06:48:56;;;;;;;7.20;4.57;;;;;;;21.43;86.02;100262.91;5083015;28;20474;-87
2022/08/10 06:51:37;;;;;;;6.50;4.93;;;;;;;21.52;85.30;100256.13;5069665;28;20063;-88
2022/08/10 06:54:11;;;;;;;7.43;4.97;;;;;;;21.62;84.89;100260.06;5065887;28;20021;-87
2022/08/10 06:56:43;;;;;;;5.03;4.30;;;;;;;21.73;83.84;100256.53;5065740;28;20427;-87
2022/08/10 06:59:15;;;;;;;4.72;4.25;;;;;;;21.79;83.13;100268.13;5083463;28;20046;-87
2022/08/10 07:01:46;;;;;;;7.28;4.78;;;;;;;21.88;82.49;100264.03;5084297;28;20036;-88
2022/08/10 07:04:29;;;;;;;8.40;4.63;;;;;;;22.01;82.06;100267.47;5085696;28;20039;-87
2022/08/10 07:06:57;;;;;;;5.55;4.65;;;;;;;22.06;80.44;100259.53;5067240;28;20032;-86
2022/08/10 07:09:24;;;;;;;14.52;5.57;;;;;;;22.18;79.59;100262.13;5092616;28;20036;-87
2022/08/10 07:11:52;;;;;;;6.60;4.85;;;;;;;22.27;80.40;100260.69;5076136;28;20047;-85
2022/08/10 07:14:20;;;;;;;6.80;4.95;;;;;;;22.30;81.38;100262.88;5079827;28;20036;-83
2022/08/10 07:16:47;;;;;;;5.53;4.90;;;;;;;22.39;79.88;100257.94;5077054;28;20032;-85
2022/08/10 07:19:14;;;;;;;4.80;4.35;;;;;;;22.56;80.19;100257.94;5074392;28;20038;-84
2022/08/10 07:21:44;;;;;;;9.50;5.07;;;;;;;22.56;78.72;100255.28;5080680;28;20136;-88
2022/08/10 07:24:13;;;;;;;10.25;4.75;;;;;;;22.73;79.05;100254.44;5086723;28;20077;-87
2022/08/10 07:26:45;;;;;;;4.70;4.30;;;;;;;22.83;78.87;100257.28;5082527;28;20032;-82
2022/08/10 07:29:13;;;;;;;6.85;4.95;;;;;;;22.78;77.81;100251.84;5086701;28;20481;-87
2022/08/10 07:31:41;;;;;;;6.80;4.82;;;;;;;22.93;76.66;100257.41;5082575;28;20063;-89
2022/08/10 07:34:08;;;;;;;6.65;4.90;;;;;;;23.06;76.80;100250.09;5080618;28;20038;-88
2022/08/10 07:36:37;;;;;;;4.80;4.35;;;;;;;23.06;75.69;100252.75;5065370;28;20039;-87
2022/08/10 07:39:05;;;;;;;10.45;4.50;;;;;;;23.14;75.95;100254.19;5062550;28;20087;-87
2022/08/10 07:41:33;;;;;;;7.65;4.63;;;;;;;23.21;76.01;100252.97;5086780;28;20089;-89
2022/08/10 07:44:03;;;;;;;8.68;4.85;;;;;;;23.24;75.25;100252.47;5079821;28;20035;-88
2022/08/10 07:46:32;;;;;;;6.55;4.82;;;;;;;23.29;75.44;100248.25;5084510;28;20032;-89
2022/08/10 07:49:17;;;;;;;5.35;4.55;;;;;;;23.37;74.89;100247.78;5082424;28;20375;-88
2022/08/10 07:51:43;;;;;;;13.95;5.22;;;;;;;23.43;75.33;100243.31;5084459;28;20355;-87
2022/08/10 07:54:14;;;;;;;5.15;4.60;;;;;;;23.52;75.02;100253.31;5084031;28;20043;-88
2022/08/10 07:56:42;;;;;;;5.30;4.80;;;;;;;23.52;73.96;100253.31;5082761;28;20043;-88
2022/08/10 07:59:10;;;;;;;9.20;5.18;;;;;;;23.59;74.21;100247.78;5081360;28;20025;-88
2022/08/10 08:01:43;;;;;;;5.85;4.80;;;;;;;23.73;75.35;100248.19;5063370;28;20036;-88
2022/08/10 08:04:12;;;;;;;6.43;4.90;;;;;;;23.76;75.84;100253.03;5068546;28;20059;-88
2022/08/10 08:06:40;;;;;;;6.90;4.60;;;;;;;23.75;74.41;100251.41;5086529;28;20490;-87
2022/08/10 08:09:07;;;;;;;7.10;5.60;;;;;;;23.73;73.13;100252.75;5077327;28;20389;-89
2022/08/10 08:11:35;;;;;;;5.40;4.65;;;;;;;23.70;71.98;100248.69;5084620;28;20024;-88
2022/08/10 08:14:04;;;;;;;9.20;5.13;;;;;;;23.93;72.73;100258.31;5060848;28;20028;-88
2022/08/10 08:16:32;;;;;;;6.97;5.05;;;;;;;23.93;71.79;100252.13;5082288;28;20039;-87
2022/08/10 08:18:59;;;;;;;5.78;5.28;;;;;;;23.94;71.39;100251.88;5081999;28;20043;-86
2022/08/10 08:21:27;;;;;;;9.05;4.63;;;;;;;24.00;71.50;100254.59;5081510;28;20482;-87
2022/08/10 08:23:54;;;;;;;8.40;4.90;;;;;;;24.02;71.24;100257.88;5091165;28;20050;-89
2022/08/10 08:26:21;;;;;;;6.88;5.25;;;;;;;23.97;72.59;100255.91;5073882;28;20038;-90
2022/08/10 08:28:49;;;;;;;6.85;5.65;;;;;;;24.19;71.99;100263.94;5088311;28;20028;-90
2022/08/10 08:31:17;;;;;;;6.72;5.13;;;;;;;24.24;72.54;100263.97;5094143;28;20054;-89
2022/08/10 08:33:45;;;;;;;7.13;4.78;;;;;;;24.24;71.79;100253.22;5097434;28;20051;-90
2022/08/10 08:36:14;;;;;;;9.25;5.40;;;;;;;24.36;72.48;100254.94;5103398;28;20024;-89
2022/08/10 08:38:41;;;;;;;5.70;5.10;;;;;;;24.38;72.66;100253.63;5101434;28;20517;-90
2022/08/10 08:41:34;;;;;;;8.60;5.88;;;;;;;24.56;73.72;100245.41;5079905;28;20029;-88
2022/08/10 08:44:36;;;;;;;6.60;5.00;;;;;;;24.64;73.12;100253.78;5095833;28;20100;-88
2022/08/10 08:47:15;;;;;;;11.25;5.22;;;;;;;24.64;71.70;100251.09;5052984;28;20048;-89
2022/08/10 08:49:47;;;;;;;6.55;4.80;;;;;;;24.76;73.07;100242.06;5075434;28;20020;-88
2022/08/10 08:52:18;;;;;;;7.63;4.90;;;;;;;24.81;72.63;100244.81;5094383;28;20034;-89
2022/08/10 08:55:11;;;;;;;7.80;4.47;;;;;;;24.86;72.11;100242.13;5096351;28;20064;-88
2022/08/10 08:58:30;;;;;;;6.45;4.75;;;;;;;24.90;70.33;100253.97;5065103;28;20068;-90
2022/08/10 09:04:58;;;;;;;6.13;4.68;;;;;;;25.10;71.13;100239.00;5096105;28;20075;-90
2022/08/10 09:08:02;;;;;;;6.22;4.70;;;;;;;25.12;71.13;100217.28;5093714;28;20025;-90
2022/08/10 09:10:57;;;;;;;5.13;4.60;;;;;;;25.17;71.43;100223.47;5092064;28;20044;-88
2022/08/10 09:13:47;;;;;;;6.47;4.60;;;;;;;25.34;70.89;100230.50;5070039;28;20031;-89
2022/08/10 09:16:22;;;;;;;8.07;4.63;;;;;;;25.38;70.31;100234.28;5085997;28;20052;-86
2022/08/10 09:19:05;;;;;;;7.00;5.22;;;;;;;25.37;70.03;100224.63;5081174;28;20457;-85
2022/08/10 09:21:56;;;;;;;8.15;4.93;;;;;;;25.44;70.64;100233.22;5086380;28;20447;-85
2022/08/10 09:24:44;;;;;;;7.57;5.05;;;;;;;25.61;71.00;100229.53;5070256;28;20110;-84
2022/08/10 09:27:31;;;;;;;6.88;4.43;;;;;;;25.64;70.87;100229.00;5081125;28;20028;-84
2022/08/10 09:30:03;;;;;;;5.80;4.60;;;;;;;25.74;71.28;100222.84;5078409;28;20047;-85
2022/08/10 09:32:46;;;;;;;7.40;5.10;;;;;;;25.80;71.05;100227.94;5083578;28;20116;-85
2022/08/10 09:35:38;;;;;;;7.72;4.93;;;;;;;25.84;70.61;100222.81;5080692;28;20178;-85
2022/08/10 09:38:31;;;;;;;7.53;4.90;;;;;;;25.80;68.71;100219.88;5080923;28;20382;-85
2022/08/10 09:41:12;;;;;;;5.50;4.87;;;;;;;25.86;70.32;100218.00;5086072;28;20059;-86
2022/08/10 09:43:55;;;;;;;6.43;5.15;;;;;;;25.85;67.91;100218.25;5079544;28;20056;-84
2022/08/10 09:46:41;;;;;;;6.63;4.65;;;;;;;25.97;69.27;100220.69;5075038;28;20372;-85
2022/08/10 09:49:26;;;;;;;5.22;4.72;;;;;;;26.04;70.31;100215.84;5078025;28;20525;-85
2022/08/10 09:51:59;;;;;;;9.00;5.13;;;;;;;26.06;68.74;100222.56;5081918;28;20028;-85
2022/08/10 09:55:12;;;;;;;5.37;4.93;;;;;;;26.18;69.73;100224.22;5080145;28;20387;-85
2022/08/10 09:58:02;;;;;;;8.20;4.90;;;;;;;26.20;68.04;100216.69;5046374;28;20087;-85
2022/08/10 10:00:39;;;;;;;8.32;4.93;;;;;;;26.21;68.96;100207.53;5083142;28;20028;-85
2022/08/10 10:03:22;;;;;;;7.22;4.97;;;;;;;26.25;68.86;100202.44;5085088;28;20440;-84
2022/08/10 10:06:31;;;;;;;7.65;4.90;;;;;;;26.37;68.16;100206.44;5085643;28;20028;-86
2022/08/10 10:09:11;;;;;;;7.03;5.38;;;;;;;26.60;67.06;100201.53;5067645;28;20490;-85
2022/08/10 10:11:49;;;;;;;5.10;4.70;;;;;;;26.74;68.71;100206.38;5064927;28;20386;-85
2022/08/10 10:14:34;;;;;;;11.05;5.47;;;;;;;26.75;67.11;100203.38;5085321;28;20039;-84
2022/08/10 10:17:15;;;;;;;10.20;5.30;;;;;;;26.86;66.85;100198.78;5084031;28;20116;-85
2022/08/10 10:19:51;;;;;;;7.53;4.82;;;;;;;26.81;67.51;100198.78;5083790;28;20106;-84
2022/08/10 10:22:42;;;;;;;10.18;5.22;;;;;;;26.75;65.46;100200.69;5083498;28;20035;-85
2022/08/10 10:25:23;;;;;;;9.63;5.20;;;;;;;26.83;64.20;100195.81;5063966;28;20021;-86
2022/08/10 10:28:12;;;;;;;6.40;5.07;;;;;;;26.97;63.70;100187.97;5081310;28;20028;-85
2022/08/10 10:31:09;;;;;;;6.38;4.90;;;;;;;26.97;65.41;100182.59;5075727;28;20032;-86
2022/08/10 10:33:59;;;;;;;5.88;4.85;;;;;;;27.06;63.77;100183.63;5079644;28;20048;-85
2022/08/10 10:36:27;;;;;;;8.65;5.55;;;;;;;27.13;64.22;100184.13;5080374;28;20036;-85
2022/08/10 10:38:56;;;;;;;8.38;5.40;;;;;;;26.81;63.72;100188.81;5078714;28;20063;-86
2022/08/10 10:41:25;;;;;;;8.77;5.60;;;;;;;26.84;63.72;100187.44;5083112;28;20028;-85
2022/08/10 10:44:25;;;;;;;11.27;5.20;;;;;;;27.14;64.65;100185.75;5067480;28;20122;-86
2022/08/10 10:47:24;;;;;;;8.05;5.13;;;;;;;27.35;63.82;100181.03;5031953;28;20048;-85
2022/08/10 10:50:05;;;;;;;9.55;5.10;;;;;;;27.39;62.12;100178.59;5080328;28;20125;-86
2022/08/10 10:52:33;;;;;;;7.10;5.50;;;;;;;27.25;61.92;100178.41;5080253;28;20028;-85
2022/08/10 10:55:16;;;;;;;6.20;5.18;;;;;;;27.39;62.22;100178.59;5083565;28;20465;-86
2022/08/10 10:58:11;;;;;;;6.43;5.10;;;;;;;27.23;60.08;100172.50;5081235;28;20040;-84
2022/08/10 11:01:05;;;;;;;5.82;5.13;;;;;;;27.34;59.07;100175.94;5085247;28;20024;-85
2022/08/10 11:03:49;;;;;;;6.65;5.40;;;;;;;27.05;58.87;100158.56;5081441;28;20119;-85
2022/08/10 11:06:33;;;;;;;6.75;5.03;;;;;;;27.33;59.48;100158.16;5080894;28;20524;-86
2022/08/10 11:09:04;;;;;;;6.35;5.70;;;;;;;27.46;59.89;100162.09;5080754;28;20032;-86
2022/08/10 11:11:38;;;;;;;6.18;5.10;;;;;;;27.57;58.61;100157.47;5081718;28;20087;-86
2022/08/10 11:14:21;;;;;;;5.55;5.07;;;;;;;27.64;59.18;100149.84;5086613;28;20024;-85
2022/08/10 11:17:08;;;;;;;8.57;4.93;;;;;;;27.76;57.76;100153.00;5069325;28;20482;-84
2022/08/10 11:19:58;;;;;;;8.02;5.15;;;;;;;27.85;58.60;100146.97;5083350;28;20023;-85
2022/08/10 11:22:44;;;;;;;5.75;5.00;;;;;;;27.99;59.28;100150.63;5076886;28;20082;-85
2022/08/10 11:25:30;;;;;;;8.07;5.30;;;;;;;28.06;58.23;100145.69;5083666;28;20028;-85
2022/08/10 11:28:09;;;;;;;8.93;4.88;;;;;;;28.01;56.88;100137.66;5083482;28;20063;-85
2022/08/10 11:30:53;;;;;;;6.25;5.50;;;;;;;28.07;55.87;100147.31;5081975;28;20446;-85
2022/08/10 11:33:32;;;;;;;6.18;5.03;;;;;;;28.07;56.09;100144.59;5085069;28;20020;-84
2022/08/10 11:36:01;;;;;;;9.23;5.35;;;;;;;28.14;57.06;100143.50;5066061;28;20064;-85
2022/08/10 11:38:48;;;;;;;9.27;5.25;;;;;;;27.74;56.55;100147.09;5086434;28;20028;-86
2022/08/10 11:41:31;;;;;;;11.45;5.97;;;;;;;27.83;55.91;100144.59;5075961;28;20033;-86
2022/08/10 11:44:10;;;;;;;15.93;5.40;;;;;;;27.46;56.56;100135.94;5078480;28;20029;-85
2022/08/10 11:46:49;;;;;;;7.00;5.10;;;;;;;27.59;57.45;100144.50;5079884;28;20084;-84
2022/08/10 11:49:31;;;;;;;8.00;5.15;;;;;;;27.59;56.80;100142.59;5093416;28;20542;-84
2022/08/10 11:52:07;;;;;;;5.55;5.00;;;;;;;27.67;57.54;100143.09;5080485;28;20047;-85
2022/08/10 11:54:42;;;;;;;7.50;5.22;;;;;;;27.55;56.99;100138.06;5079091;28;20051;-85
2022/08/10 11:57:10;;;;;;;5.70;5.20;;;;;;;27.70;58.16;100139.84;5083525;28;20478;-85